Time;durP1;ratioP1;P1;durP2;ratioP2;P2;SDS_P1;SDS_P2;PMS_P1;PMS_P2;Temp;Humidity;BMP_temperature;BMP_pressure;BME280_temperature;BME280_humidity;BME280_pressure;Samples;Min_cycle;Max_cycle;Signal;HPM_P1;HPM_P2
2021/01/02 00:02:38;;;;;;;6.47;4.67;;;;;;;4.05;59.94;96538.93;1748659;80;21214;-54
2021/01/02 00:05:12;;;;;;;3.40;3.10;;;;;;;4.09;60.01;96534.94;1749877;80;21572;-55
2021/01/02 00:08:08;;;;;;;4.28;3.17;;;;;;;4.10;59.99;96539.19;1753004;80;21755;-54
2021/01/02 00:10:54;;;;;;;1.75;1.60;;;;;;;4.10;59.96;96539.19;1751186;80;21181;-55
2021/01/02 00:13:43;;;;;;;2.77;2.37;;;;;;;4.11;59.95;96540.83;1740946;80;21112;-56
2021/01/02 00:16:42;;;;;;;3.10;2.80;;;;;;;4.14;59.84;96545.38;1727144;81;21209;-55
2021/01/02 00:19:27;;;;;;;2.67;1.92;;;;;;;4.17;59.67;96550.38;1751299;80;21092;-54
2021/01/02 00:22:04;;;;;;;2.58;1.82;;;;;;;4.19;59.69;96551.16;1740026;80;21127;-55
2021/01/02 00:24:54;;;;;;;2.20;2.00;;;;;;;4.19;59.56;96551.16;1764566;79;21069;-55
2021/01/02 00:27:28;;;;;;;2.15;1.95;;;;;;;4.19;59.46;96556.30;1732099;81;21039;-54
2021/01/02 00:30:04;;;;;;;7.87;6.55;;;;;;;4.19;59.31;96556.30;1772165;79;21444;-54
2021/01/02 00:32:43;;;;;;;3.47;2.50;;;;;;;4.21;59.25;96557.48;1768568;79;21077;-55
2021/01/02 00:35:22;;;;;;;4.50;3.83;;;;;;;4.22;59.05;96567.69;1730882;80;21386;-55
2021/01/02 00:38:01;;;;;;;3.65;2.90;;;;;;;4.23;58.95;96565.97;1773618;79;21049;-54
2021/01/02 00:40:30;;;;;;;3.70;3.33;;;;;;;4.23;58.88;96573.22;1766134;79;21061;-54
2021/01/02 00:42:57;;;;;;;6.62;4.40;;;;;;;4.22;58.89;96572.00;1768117;80;22309;-55
2021/01/02 00:45:28;;;;;;;3.98;3.20;;;;;;;4.18;58.87;96567.92;1772160;80;21125;-54
2021/01/02 00:47:56;;;;;;;3.98;2.83;;;;;;;4.16;58.99;96575.69;1767485;80;21119;-54
2021/01/02 00:50:26;;;;;;;2.20;2.00;;;;;;;4.14;59.02;96580.04;1762762;80;21522;-54
2021/01/02 00:53:05;;;;;;;3.50;2.55;;;;;;;4.11;59.16;96584.05;1759685;80;21108;-54
2021/01/02 00:56:00;;;;;;;3.92;3.00;;;;;;;4.08;59.24;96586.75;1738514;80;21460;-54
2021/01/02 00:58:59;;;;;;;2.00;1.80;;;;;;;4.04;59.33;96587.31;1746554;80;21105;-54
2021/01/02 01:01:38;;;;;;;2.22;1.82;;;;;;;4.02;59.41;96590.41;1739856;80;21146;-53
2021/01/02 01:04:13;;;;;;;2.30;1.57;;;;;;;3.95;59.41;96592.06;1741912;80;21090;-52
2021/01/02 01:06:40;;;;;;;3.22;2.15;;;;;;;3.91;59.68;96589.22;1741177;80;21195;-52
2021/01/02 01:09:08;;;;;;;2.08;1.82;;;;;;;3.89;59.85;96598.73;1745407;80;21269;-52
2021/01/02 01:11:36;;;;;;;1.87;1.75;;;;;;;3.89;59.89;96598.27;1691868;80;21162;-51
2021/01/02 01:14:04;;;;;;;2.47;2.10;;;;;;;3.89;59.89;96596.99;1739640;80;21521;-53
2021/01/02 01:16:46;;;;;;;2.27;1.80;;;;;;;3.92;59.77;96603.73;1738355;80;21077;-53
2021/01/02 01:19:20;;;;;;;2.92;2.10;;;;;;;3.94;59.80;96603.21;1736151;80;22270;-54
2021/01/02 01:21:51;;;;;;;3.15;2.52;;;;;;;3.98;59.75;96616.28;1747184;80;21445;-54
2021/01/02 01:24:27;;;;;;;2.75;2.42;;;;;;;4.01;59.70;96620.00;1742071;80;21909;-53
2021/01/02 01:27:19;;;;;;;4.17;2.20;;;;;;;4.01;59.65;96619.58;1739494;80;21148;-53
2021/01/02 01:30:00;;;;;;;3.08;2.70;;;;;;;4.02;59.68;96613.98;1739534;80;21167;-54
2021/01/02 01:32:29;;;;;;;3.85;3.45;;;;;;;4.05;59.59;96618.52;1734776;80;21070;-53
2021/01/02 01:35:01;;;;;;;3.80;3.42;;;;;;;4.09;59.53;96614.08;1739795;80;21430;-54
2021/01/02 01:37:32;;;;;;;14.55;7.92;;;;;;;4.13;59.54;96617.34;1745959;80;21101;-53
2021/01/02 01:40:00;;;;;;;8.03;5.70;;;;;;;4.13;59.42;96611.78;1747063;80;21546;-53
2021/01/02 01:42:44;;;;;;;7.47;5.05;;;;;;;4.15;59.36;96614.28;1746716;80;21053;-53
2021/01/02 01:45:26;;;;;;;6.95;4.33;;;;;;;4.15;59.42;96612.99;1737416;80;21506;-53
2021/01/02 01:48:09;;;;;;;5.92;4.40;;;;;;;4.15;59.43;96609.14;1723113;83;21390;-53
2021/01/02 01:51:03;;;;;;;4.67;3.50;;;;;;;4.11;59.52;96611.02;1748435;80;21211;-53
2021/01/02 01:53:58;;;;;;;4.10;3.10;;;;;;;4.04;59.64;96604.47;1747522;80;22325;-53
2021/01/02 01:56:43;;;;;;;2.22;2.02;;;;;;;4.03;59.73;96613.09;1747831;80;21184;-53
2021/01/02 01:59:24;;;;;;;2.90;1.75;;;;;;;4.00;59.75;96609.37;1745610;80;21058;-53
2021/01/02 02:01:53;;;;;;;2.40;2.20;;;;;;;4.03;59.79;96613.91;1746159;80;21272;-53
2021/01/02 02:05:06;;;;;;;2.83;2.47;;;;;;;4.11;59.68;96621.72;1744066;80;21104;-53
2021/01/02 02:07:57;;;;;;;5.87;3.20;;;;;;;4.17;59.61;96623.56;1743445;80;21158;-52
2021/01/02 02:10:32;;;;;;;2.52;2.22;;;;;;;4.25;59.31;96616.81;1763766;79;22011;-53
2021/01/02 02:13:10;;;;;;;2.62;2.37;;;;;;;4.33;59.19;96620.33;1756280;80;21168;-53
2021/01/02 02:15:50;;;;;;;6.28;4.17;;;;;;;4.40;59.08;96623.81;1746182;80;21393;-53
2021/01/02 02:18:23;;;;;;;7.50;4.92;;;;;;;4.43;58.93;96626.71;1745561;80;21089;-53
2021/01/02 02:20:59;;;;;;;8.08;5.55;;;;;;;4.39;58.36;96626.02;1737210;80;21086;-53
2021/01/02 02:23:42;;;;;;;9.23;5.55;;;;;;;4.18;58.14;96629.09;1742007;80;21857;-54
2021/01/02 02:26:30;;;;;;;8.00;5.15;;;;;;;4.00;58.45;96624.31;1741600;80;21501;-54
2021/01/02 02:29:24;;;;;;;6.87;5.17;;;;;;;3.93;58.96;96629.34;1742972;80;21087;-53
2021/01/02 02:31:55;;;;;;;7.00;5.10;;;;;;;3.83;59.18;96629.33;1737024;80;21616;-54
2021/01/02 02:34:23;;;;;;;8.18;5.22;;;;;;;3.73;59.75;96631.92;1743803;80;21081;-54
2021/01/02 02:36:50;;;;;;;7.80;4.77;;;;;;;3.76;60.01;96626.66;1740114;80;21144;-53
2021/01/02 02:39:18;;;;;;;6.90;4.75;;;;;;;3.79;59.93;96624.79;1738781;80;21572;-55
2021/01/02 02:41:52;;;;;;;8.63;5.97;;;;;;;3.79;59.93;96629.09;1747099;80;21211;-54
2021/01/02 02:44:24;;;;;;;5.30;4.00;;;;;;;3.82;59.79;96630.25;1738799;80;21152;-54
2021/01/02 02:46:55;;;;;;;3.35;2.83;;;;;;;3.81;59.65;96626.83;1712977;80;21074;-54
2021/01/02 02:49:23;;;;;;;2.25;2.02;;;;;;;3.66;59.96;96625.75;1745304;80;21192;-54
2021/01/02 02:52:13;;;;;;;2.03;1.60;;;;;;;3.48;60.40;96627.81;1741535;80;21632;-55
2021/01/02 02:54:41;;;;;;;2.20;1.75;;;;;;;3.30;60.86;96626.84;1724909;80;22298;-55
2021/01/02 02:57:09;;;;;;;2.20;1.92;;;;;;;3.15;61.22;96633.43;1738557;80;21175;-54
2021/01/02 02:59:37;;;;;;;2.47;1.98;;;;;;;3.07;61.58;96632.91;1738714;80;21152;-55
2021/01/02 03:02:06;;;;;;;1.80;1.60;;;;;;;3.01;61.87;96627.59;1741675;80;21588;-55
2021/01/02 03:04:33;;;;;;;;;;;;;;;3.02;62.21;96626.67;1742102;80;21194;-54
2021/01/02 03:07:05;;;;;;;2.40;2.20;;;;;;;3.05;62.34;96625.73;1743691;81;21196;-54
2021/01/02 03:09:33;;;;;;;2.65;2.45;;;;;;;3.12;62.16;96622.02;1739788;80;21216;-54
2021/01/02 03:12:01;;;;;;;3.17;2.60;;;;;;;3.26;61.96;96635.58;1741818;80;21081;-54
2021/01/02 03:14:28;;;;;;;3.17;2.87;;;;;;;3.36;61.67;96625.78;1742467;82;21068;-54
2021/01/02 03:16:58;;;;;;;3.98;3.50;;;;;;;3.47;61.50;96625.71;1731024;82;21575;-54
2021/01/02 03:19:27;;;;;;;4.50;3.67;;;;;;;3.61;61.13;96630.70;1743824;81;21192;-54
2021/01/02 03:21:55;;;;;;;;;;;;;;;3.68;60.98;96624.41;1745264;82;21177;-54
2021/01/02 03:24:22;;;;;;;3.62;3.22;;;;;;;3.73;60.79;96630.17;1740315;81;20569;-53
2021/01/02 03:26:50;;;;;;;5.33;3.90;;;;;;;3.79;60.72;96639.36;1733908;82;21089;-52
2021/01/02 03:29:17;;;;;;;4.53;3.40;;;;;;;3.88;60.58;96632.53;1737690;82;21086;-53
2021/01/02 03:31:44;;;;;;;2.30;2.10;;;;;;;3.91;60.20;96633.69;1742732;82;21741;-53
2021/01/02 03:34:12;;;;;;;2.05;1.70;;;;;;;3.90;59.84;96635.89;1744932;82;21110;-52
2021/01/02 03:36:40;;;;;;;1.87;1.60;;;;;;;3.67;59.93;96624.87;1741056;82;21231;-53
2021/01/02 03:39:07;;;;;;;1.82;1.45;;;;;;;3.34;60.48;96636.52;1745331;82;21279;-53
2021/01/02 03:41:35;;;;;;;2.67;1.87;;;;;;;2.98;61.72;96643.51;1745041;80;21113;-53
2021/01/02 03:44:04;;;;;;;1.67;1.57;;;;;;;2.68;62.90;96642.53;1744025;82;21540;-53
2021/01/02 03:46:33;;;;;;;1.70;1.60;;;;;;;2.59;63.46;96639.87;1738963;82;21204;-54
2021/01/02 03:49:00;;;;;;;1.42;1.32;;;;;;;2.63;63.46;96641.45;1744603;81;21187;-53
2021/01/02 03:51:28;;;;;;;1.82;1.60;;;;;;;2.66;63.33;96637.92;1747820;81;21180;-53
2021/01/02 03:53:55;;;;;;;3.80;1.30;;;;;;;2.67;63.39;96644.27;1746861;80;21560;-54
2021/01/02 03:56:23;;;;;;;2.22;1.50;;;;;;;2.71;63.47;96643.27;1741158;82;22085;-54
2021/01/02 03:58:50;;;;;;;2.65;1.40;;;;;;;2.78;63.32;96648.13;1734885;82;21105;-54
2021/01/02 04:01:18;;;;;;;1.55;1.30;;;;;;;2.87;63.15;96643.95;1745539;80;21494;-54
2021/01/02 04:03:46;;;;;;;4.28;1.70;;;;;;;2.92;62.92;96645.88;1740112;80;21572;-54
2021/01/02 04:06:13;;;;;;;1.57;1.47;;;;;;;2.94;62.76;96654.34;1705206;83;21112;-53
2021/01/02 04:08:41;;;;;;;1.75;1.60;;;;;;;2.94;62.66;96653.05;1700607;82;21475;-54
2021/01/02 04:11:09;;;;;;;1.50;1.37;;;;;;;2.97;62.63;96655.50;1698851;83;21496;-53
2021/01/02 04:13:36;;;;;;;1.87;1.77;;;;;;;2.99;62.54;96657.55;1703870;83;21179;-53
2021/01/02 04:16:04;;;;;;;1.75;1.60;;;;;;;3.01;62.63;96659.62;1716748;83;21266;-53
2021/01/02 04:18:33;;;;;;;1.77;1.67;;;;;;;3.03;62.53;96659.57;1706115;83;21060;-53
2021/01/02 04:21:00;;;;;;;3.60;2.30;;;;;;;3.06;62.46;96659.00;1712315;83;21388;-53
2021/01/02 04:23:28;;;;;;;3.75;2.90;;;;;;;3.11;62.41;96663.95;1706484;83;21135;-54
2021/01/02 04:25:55;;;;;;;2.83;2.17;;;;;;;3.17;62.34;96670.09;1701856;83;21151;-54
2021/01/02 04:28:23;;;;;;;2.10;1.45;;;;;;;3.24;62.16;96666.83;1692520;83;21167;-54
2021/01/02 04:30:51;;;;;;;2.42;1.35;;;;;;;3.29;61.96;96677.31;1700317;83;21544;-54
2021/01/02 04:33:18;;;;;;;1.45;1.35;;;;;;;3.34;61.80;96676.27;1707401;82;21226;-55
2021/01/02 04:35:46;;;;;;;1.52;1.35;;;;;;;3.38;61.68;96674.81;1697331;83;21123;-55
2021/01/02 04:38:14;;;;;;;1.42;1.32;;;;;;;3.40;61.59;96676.86;1710914;83;21560;-55
2021/01/02 04:40:42;;;;;;;2.85;1.42;;;;;;;3.39;61.60;96681.62;1704908;83;21184;-55
2021/01/02 04:43:09;;;;;;;1.80;1.60;;;;;;;3.37;61.60;96685.13;1703915;83;21116;-54
2021/01/02 04:45:37;;;;;;;1.90;1.30;;;;;;;3.39;61.67;96687.18;1713638;83;22132;-53
2021/01/02 04:48:06;;;;;;;2.12;1.12;;;;;;;3.43;61.44;96683.61;1713131;83;21151;-54
2021/01/02 04:50:34;;;;;;;1.50;1.40;;;;;;;3.50;61.36;96691.01;1714085;81;21520;-53
2021/01/02 04:53:04;;;;;;;1.42;1.20;;;;;;;3.59;61.21;96688.96;1736899;82;21099;-54
2021/01/02 04:55:32;;;;;;;1.70;1.60;;;;;;;3.67;61.09;96684.34;1757241;80;21053;-54
2021/01/02 04:58:00;;;;;;;;;;;;;;;3.72;60.95;96684.98;1774152;80;22368;-54
2021/01/02 05:00:28;;;;;;;1.77;1.62;;;;;;;3.73;60.79;96686.64;1736231;82;20481;-54
2021/01/02 05:02:58;;;;;;;2.10;1.47;;;;;;;3.73;60.63;96693.52;1735023;82;21588;-54
2021/01/02 05:05:26;;;;;;;2.22;1.60;;;;;;;3.73;60.59;96698.19;1776498;80;21904;-53
2021/01/02 05:07:53;;;;;;;2.33;1.67;;;;;;;3.76;60.47;96710.89;1773010;80;21144;-54
2021/01/02 05:10:22;;;;;;;2.37;1.40;;;;;;;3.80;60.46;96703.47;1778687;80;21843;-54
2021/01/02 05:12:49;;;;;;;1.77;1.30;;;;;;;3.86;60.34;96707.07;1753328;81;21071;-54
2021/01/02 05:15:18;;;;;;;5.40;1.60;;;;;;;3.93;60.12;96711.92;1758311;81;21601;-54
2021/01/02 05:17:46;;;;;;;1.50;1.20;;;;;;;3.95;60.03;96714.83;1759391;81;21144;-54
2021/01/02 05:20:15;;;;;;;1.90;1.70;;;;;;;3.96;59.97;96713.91;1748026;81;21191;-55
2021/01/02 05:22:44;;;;;;;8.15;6.50;;;;;;;3.98;59.98;96717.70;1753729;81;21402;-55
2021/01/02 05:25:18;;;;;;;4.87;4.10;;;;;;;4.05;59.95;96718.66;1744790;81;21104;-53
2021/01/02 05:27:50;;;;;;;5.53;4.05;;;;;;;4.22;59.71;96722.25;1740982;81;21430;-53
2021/01/02 05:30:27;;;;;;;4.83;3.92;;;;;;;4.40;59.47;96725.30;1744858;80;21509;-53
2021/01/02 05:33:11;;;;;;;5.78;3.98;;;;;;;4.53;59.13;96723.03;1751449;80;21172;-53
2021/01/02 05:35:42;;;;;;;3.55;3.05;;;;;;;4.60;59.01;96718.45;1753050;80;21298;-54
2021/01/02 05:38:22;;;;;;;4.45;3.55;;;;;;;4.69;58.79;96716.77;1752641;80;21501;-53
2021/01/02 05:40:55;;;;;;;3.30;2.35;;;;;;;4.75;58.48;96716.49;1747161;80;21065;-54
2021/01/02 05:43:24;;;;;;;4.65;2.85;;;;;;;4.79;58.19;96718.00;1744768;80;21076;-54
2021/01/02 05:45:52;;;;;;;4.17;3.35;;;;;;;4.84;57.90;96724.23;1753830;80;21137;-55
2021/01/02 05:48:25;;;;;;;4.60;3.87;;;;;;;4.88;57.96;96727.02;1748451;80;26537;-54
2021/01/02 05:50:59;;;;;;;4.87;3.85;;;;;;;4.91;58.06;96730.75;1743950;80;21188;-54
2021/01/02 05:53:32;;;;;;;2.98;2.67;;;;;;;4.94;57.70;96735.75;1702791;82;21110;-55
2021/01/02 05:56:12;;;;;;;1.90;1.60;;;;;;;4.93;57.46;96736.67;1696607;82;21161;-53
2021/01/02 05:58:42;;;;;;;2.95;2.00;;;;;;;4.84;57.40;96739.66;1698821;82;21141;-55
2021/01/02 06:01:14;;;;;;;3.80;2.90;;;;;;;4.77;57.56;96737.81;1697035;82;21211;-54
2021/01/02 06:03:47;;;;;;;4.50;3.47;;;;;;;4.77;57.73;96736.98;1696195;82;21227;-54
2021/01/02 06:06:16;;;;;;;5.47;4.10;;;;;;;4.74;57.98;96741.80;1703299;82;21129;-54
2021/01/02 06:08:49;;;;;;;3.00;2.45;;;;;;;4.69;58.14;96746.32;1703073;82;21200;-54
2021/01/02 06:11:19;;;;;;;3.62;2.95;;;;;;;4.65;58.42;96746.52;1700220;82;21127;-54
2021/01/02 06:13:51;;;;;;;4.62;3.30;;;;;;;4.57;58.65;96753.27;1703035;82;22414;-55
2021/01/02 06:16:19;;;;;;;4.33;3.22;;;;;;;4.53;58.78;96753.86;1700176;82;21203;-54
2021/01/02 06:18:48;;;;;;;8.25;6.37;;;;;;;4.49;59.21;96750.20;1699572;82;21148;-55
2021/01/02 06:21:17;;;;;;;6.25;4.25;;;;;;;4.49;59.31;96756.63;1697745;82;21204;-54
2021/01/02 06:23:46;;;;;;;5.70;3.80;;;;;;;4.49;59.40;96758.77;1703283;82;21145;-54
2021/01/02 06:26:15;;;;;;;5.03;3.70;;;;;;;4.55;59.34;96766.19;1693309;82;21471;-54
2021/01/02 06:28:44;;;;;;;6.05;4.45;;;;;;;4.67;59.24;96763.98;1693608;82;21168;-55
2021/01/02 06:31:14;;;;;;;5.47;4.20;;;;;;;4.91;58.82;96760.31;1698042;82;21130;-55
2021/01/02 06:33:47;;;;;;;7.67;6.35;;;;;;;5.20;58.37;96764.59;1702207;82;21558;-55
2021/01/02 06:36:36;;;;;;;7.90;5.60;;;;;;;5.54;57.83;96761.71;1692596;82;21129;-55
2021/01/02 06:39:24;;;;;;;7.70;4.62;;;;;;;5.87;56.98;96769.57;1696495;82;21984;-55
2021/01/02 06:41:53;;;;;;;7.42;4.80;;;;;;;6.29;56.17;96771.41;1682365;82;21247;-54
2021/01/02 06:44:43;;;;;;;8.90;5.97;;;;;;;6.99;54.77;96769.50;1698394;82;22100;-54
2021/01/02 06:47:22;;;;;;;12.95;9.33;;;;;;;7.60;53.33;96773.97;1694193;82;21077;-54
2021/01/02 06:49:53;;;;;;;5.12;3.90;;;;;;;8.11;51.04;96775.83;1697223;82;21149;-56
2021/01/02 06:52:35;;;;;;;6.62;4.47;;;;;;;8.20;50.17;96779.63;1727805;80;22077;-55
2021/01/02 06:55:22;;;;;;;4.70;3.85;;;;;;;8.08;49.68;96782.47;1731770;80;21171;-58
2021/01/02 06:57:52;;;;;;;8.60;4.62;;;;;;;7.88;50.49;96779.27;1740965;80;21100;-55
2021/01/02 07:00:26;;;;;;;7.20;5.58;;;;;;;8.39;49.43;96782.81;1705595;82;21514;-56
2021/01/02 07:02:55;;;;;;;3.10;2.80;;;;;;;9.07;48.36;96783.14;1739478;80;21181;-53
2021/01/02 07:05:48;;;;;;;5.72;4.08;;;;;;;9.83;46.47;96781.35;1744115;80;22269;-54
2021/01/02 07:08:44;;;;;;;7.72;5.65;;;;;;;10.49;45.55;96780.95;1739304;80;21620;-54
2021/01/02 07:11:30;;;;;;;5.80;4.72;;;;;;;11.32;43.55;96778.79;1741414;80;21203;-53
2021/01/02 07:14:24;;;;;;;3.80;2.60;;;;;;;11.91;41.75;96787.14;1735901;80;21196;-54
2021/01/02 07:17:00;;;;;;;3.12;2.75;;;;;;;12.13;40.63;96792.92;1736115;80;21184;-54
2021/01/02 07:19:34;;;;;;;13.68;10.10;;;;;;;12.51;40.49;96787.94;1729407;80;21253;-53
2021/01/02 07:22:18;;;;;;;6.00;5.17;;;;;;;13.03;39.54;96798.29;1723441;80;21673;-54
2021/01/02 07:25:03;;;;;;;6.37;4.50;;;;;;;13.67;38.51;96793.38;1740492;80;21168;-54
2021/01/02 07:27:35;;;;;;;6.30;5.08;;;;;;;14.01;36.24;96790.67;1741401;80;21644;-54
2021/01/02 07:30:11;;;;;;;5.95;4.53;;;;;;;13.81;36.49;96793.11;1735220;80;21636;-54
2021/01/02 07:32:43;;;;;;;5.67;5.00;;;;;;;13.82;36.21;96798.69;1741487;80;21554;-54
2021/01/02 07:35:13;;;;;;;5.70;4.70;;;;;;;13.90;36.08;96796.28;1731404;80;21526;-54
2021/01/02 07:37:45;;;;;;;7.25;5.17;;;;;;;14.08;35.97;96798.34;1743044;80;21068;-53
2021/01/02 07:40:17;;;;;;;8.25;6.10;;;;;;;14.14;35.79;96801.76;1746001;80;21157;-54
2021/01/02 07:42:50;;;;;;;6.37;5.10;;;;;;;14.58;35.63;96802.97;1748130;80;21128;-55
2021/01/02 07:45:20;;;;;;;7.40;5.97;;;;;;;15.19;34.37;96796.48;1735818;80;21384;-54
2021/01/02 07:47:53;;;;;;;6.55;4.80;;;;;;;15.68;33.79;96801.05;1741206;80;21212;-54
2021/01/02 07:50:25;;;;;;;7.92;5.75;;;;;;;16.16;32.43;96810.75;1733551;80;21547;-55
2021/01/02 07:52:57;;;;;;;7.67;5.15;;;;;;;16.30;32.58;96814.27;1732291;80;21621;-54
2021/01/02 07:55:31;;;;;;;16.00;10.72;;;;;;;16.77;32.53;96804.83;1736836;80;21108;-55
2021/01/02 07:58:00;;;;;;;10.32;9.23;;;;;;;17.41;31.81;96813.73;1734688;80;21331;-55
2021/01/02 08:00:28;;;;;;;21.37;16.35;;;;;;;17.79;29.65;96807.44;1739452;80;21129;-56
2021/01/02 08:03:03;;;;;;;11.20;9.78;;;;;;;17.62;29.85;96815.63;1740828;80;21120;-55
2021/01/02 08:05:31;;;;;;;26.07;20.52;;;;;;;17.36;30.28;96824.66;1734118;80;21077;-55
2021/01/02 08:08:01;;;;;;;8.95;7.22;;;;;;;17.54;30.60;96819.47;1740177;80;21088;-53
2021/01/02 08:10:30;;;;;;;10.90;9.30;;;;;;;18.20;30.32;96816.23;1745966;80;21377;-56
2021/01/02 08:13:02;;;;;;;9.93;8.68;;;;;;;19.13;29.30;96821.05;1732936;80;21105;-55
2021/01/02 08:15:35;;;;;;;10.78;7.70;;;;;;;20.03;27.14;96824.03;1736983;80;21088;-55
2021/01/02 08:18:08;;;;;;;12.98;10.48;;;;;;;20.03;27.15;96825.35;1734580;80;21184;-55
2021/01/02 08:20:38;;;;;;;11.10;8.73;;;;;;;20.10;27.51;96828.63;1740596;80;21549;-54
2021/01/02 08:23:09;;;;;;;7.30;5.75;;;;;;;19.80;26.30;96826.92;1742116;80;21368;-55
2021/01/02 08:25:37;;;;;;;7.05;5.90;;;;;;;18.99;26.95;96828.19;1742388;80;21148;-55
2021/01/02 08:28:05;;;;;;;7.53;5.80;;;;;;;18.74;27.85;96827.50;1743452;80;21176;-55
2021/01/02 08:30:33;;;;;;;12.28;5.87;;;;;;;18.97;27.43;96831.47;1755663;81;21181;-56
2021/01/02 08:33:01;;;;;;;7.58;5.10;;;;;;;19.08;27.92;96829.91;1755743;80;21081;-56
2021/01/02 08:35:38;;;;;;;4.85;4.22;;;;;;;19.49;27.63;96840.13;1755784;81;21213;-57
2021/01/02 08:38:10;;;;;;;8.28;3.67;;;;;;;19.87;27.00;96835.84;1747710;82;21152;-56
2021/01/02 08:40:44;;;;;;;5.00;4.10;;;;;;;20.21;26.94;96833.59;1747797;80;21209;-55
2021/01/02 08:43:24;;;;;;;4.58;3.90;;;;;;;20.77;26.17;96835.11;1741853;82;21073;-54
2021/01/02 08:46:03;;;;;;;3.08;2.58;;;;;;;21.08;25.41;96837.86;1747152;81;21129;-57
2021/01/02 08:48:31;;;;;;;2.45;2.25;;;;;;;21.06;24.95;96842.49;1745963;82;21369;-57
2021/01/02 08:50:59;;;;;;;4.12;3.65;;;;;;;20.65;25.17;96842.54;1742352;80;21124;-57
2021/01/02 08:53:33;;;;;;;4.33;3.65;;;;;;;20.47;25.71;96839.22;1710502;80;21565;-58
2021/01/02 08:56:24;;;;;;;12.40;11.08;;;;;;;20.66;25.76;96838.92;1740635;80;21675;-58
2021/01/02 08:58:52;;;;;;;17.35;15.65;;;;;;;20.70;25.42;96840.23;1747275;80;21125;-65
2021/01/02 09:01:20;;;;;;;8.18;7.33;;;;;;;19.97;25.98;96837.03;1742066;80;22319;-58
2021/01/02 09:03:48;;;;;;;6.10;3.80;;;;;;;19.22;27.12;96842.95;1734213;80;21081;-58
2021/01/02 09:06:26;;;;;;;4.87;4.37;;;;;;;19.16;27.53;96838.31;1733589;81;21119;-57
2021/01/02 09:09:02;;;;;;;6.65;3.67;;;;;;;19.37;27.34;96841.88;1729573;81;22055;-57
2021/01/02 09:11:47;;;;;;;7.72;4.05;;;;;;;19.35;27.17;96843.84;1764676;79;21120;-57
2021/01/02 09:14:14;;;;;;;6.17;4.08;;;;;;;18.92;27.11;96840.63;1762155;79;21378;-58
2021/01/02 09:17:01;;;;;;;4.37;3.30;;;;;;;18.29;28.16;96838.98;1767766;79;21048;-59
2021/01/02 09:19:29;;;;;;;3.80;3.30;;;;;;;17.70;28.48;96846.85;1729069;82;21093;-64
2021/01/02 09:21:58;;;;;;;3.58;3.10;;;;;;;16.83;29.60;96850.95;1731552;81;21154;-60
2021/01/02 09:24:29;;;;;;;4.50;2.90;;;;;;;16.10;30.60;96847.48;1717619;81;21688;-59
2021/01/02 09:26:57;;;;;;;2.90;2.33;;;;;;;15.32;31.90;96845.94;1737839;80;22851;-58
2021/01/02 09:29:26;;;;;;;3.87;2.70;;;;;;;14.82;32.91;96847.12;1743981;80;21135;-58
2021/01/02 09:31:54;;;;;;;2.87;2.42;;;;;;;14.42;33.83;96851.22;1759287;79;21152;-58
2021/01/02 09:34:22;;;;;;;6.08;2.60;;;;;;;14.34;34.21;96849.70;1708921;81;21572;-58
2021/01/02 09:36:50;;;;;;;6.03;3.00;;;;;;;14.07;34.48;96852.80;1764404;79;21226;-58
2021/01/02 09:39:24;;;;;;;3.13;2.50;;;;;;;13.93;35.00;96846.91;1698479;81;21271;-57
2021/01/02 09:41:52;;;;;;;3.50;2.80;;;;;;;14.11;34.64;96848.97;1772057;79;21072;-60
2021/01/02 09:44:20;;;;;;;5.12;3.75;;;;;;;14.16;34.75;96839.84;1762883;79;21132;-58
2021/01/02 09:46:51;;;;;;;6.47;4.20;;;;;;;14.38;34.67;96841.17;1751879;79;21037;-58
2021/01/02 09:49:19;;;;;;;8.05;4.22;;;;;;;14.44;34.36;96846.72;1764707;79;21164;-58
2021/01/02 09:51:47;;;;;;;10.82;5.42;;;;;;;14.37;34.68;96840.33;1731488;81;22358;-59
2021/01/02 09:54:15;;;;;;;7.20;4.67;;;;;;;14.44;34.23;96843.27;1756760;80;21164;-57
2021/01/02 09:56:46;;;;;;;7.25;4.35;;;;;;;14.29;34.49;96840.98;1753007;80;21140;-59
2021/01/02 09:59:15;;;;;;;9.05;5.58;;;;;;;14.59;34.34;96843.78;1761895;80;21201;-59
2021/01/02 10:01:43;;;;;;;15.23;7.30;;;;;;;14.98;33.82;96844.05;1752969;80;21061;-57
2021/01/02 10:04:10;;;;;;;17.35;9.75;;;;;;;15.51;33.83;96842.58;1761000;80;21245;-59
2021/01/02 10:06:48;;;;;;;8.65;4.37;;;;;;;16.31;32.39;96844.71;1719521;81;21160;-58
2021/01/02 10:09:16;;;;;;;10.30;5.75;;;;;;;16.69;31.32;96836.50;1761192;79;21135;-57
2021/01/02 10:11:44;;;;;;;9.38;4.12;;;;;;;17.01;30.86;96833.22;1740420;80;21641;-58
2021/01/02 10:14:13;;;;;;;5.78;4.03;;;;;;;17.33;30.53;96835.44;1753940;80;21474;-59
2021/01/02 10:16:42;;;;;;;5.40;3.95;;;;;;;17.59;30.48;96832.97;1748424;80;21157;-58
2021/01/02 10:19:10;;;;;;;6.40;3.70;;;;;;;17.61;30.41;96828.89;1747801;80;28342;-58
2021/01/02 10:21:38;;;;;;;3.87;2.70;;;;;;;17.43;30.27;96825.75;1757810;80;21053;-58
2021/01/02 10:24:08;;;;;;;5.75;3.00;;;;;;;16.78;30.71;96826.15;1754263;80;21093;-57
2021/01/02 10:26:35;;;;;;;5.35;3.27;;;;;;;15.98;31.83;96817.97;1707018;80;21108;-57
2021/01/02 10:29:05;;;;;;;17.42;10.72;;;;;;;15.87;32.74;96825.13;1763713;80;21374;-57
2021/01/02 10:31:32;;;;;;;13.65;8.25;;;;;;;16.45;32.44;96820.41;1764626;80;21089;-58
2021/01/02 10:34:00;;;;;;;9.53;6.28;;;;;;;17.43;31.65;96811.33;1753166;80;21109;-58
2021/01/02 10:36:28;;;;;;;5.05;4.05;;;;;;;18.37;29.99;96811.47;1739250;80;21097;-57
2021/01/02 10:38:56;;;;;;;5.00;3.55;;;;;;;19.18;28.91;96808.72;1756550;80;21730;-57
2021/01/02 10:41:25;;;;;;;5.70;3.77;;;;;;;19.59;27.96;96803.62;1738813;81;22841;-56
2021/01/02 10:43:53;;;;;;;6.03;3.65;;;;;;;19.78;28.50;96805.20;1731230;81;21699;-58
2021/01/02 10:46:21;;;;;;;;;;;;;;;20.46;26.79;96800.19;1730530;81;21628;-59
2021/01/02 10:48:49;;;;;;;4.83;3.70;;;;;;;20.51;26.86;96800.98;1760827;80;20218;-56
2021/01/02 10:51:19;;;;;;;4.12;3.72;;;;;;;20.65;26.59;96804.31;1753065;80;21198;-57
2021/01/02 10:53:47;;;;;;;6.33;3.98;;;;;;;20.54;25.92;96800.66;1759792;80;21409;-59
2021/01/02 10:56:17;;;;;;;4.78;4.12;;;;;;;19.83;26.28;96789.75;1751970;80;21240;-60
2021/01/02 10:58:45;;;;;;;4.17;3.40;;;;;;;18.92;26.99;96799.06;1755109;81;21112;-58
2021/01/02 11:01:14;;;;;;;5.33;3.67;;;;;;;18.22;28.03;96789.33;1740164;81;21068;-57
2021/01/02 11:03:42;;;;;;;3.27;2.85;;;;;;;17.83;28.55;96794.37;1759303;80;21088;-59
2021/01/02 11:06:12;;;;;;;4.28;3.22;;;;;;;17.57;29.00;96793.44;1733222;81;21517;-58
2021/01/02 11:08:39;;;;;;;4.83;4.00;;;;;;;17.24;29.35;96805.67;1756525;80;21192;-57
2021/01/02 11:11:07;;;;;;;6.78;5.10;;;;;;;16.65;30.05;96801.55;1757924;80;21164;-59
2021/01/02 11:13:36;;;;;;;6.80;3.90;;;;;;;15.65;31.53;96789.05;1749538;80;21152;-58
2021/01/02 11:16:04;;;;;;;4.77;3.20;;;;;;;14.76;33.14;96783.66;1758859;80;21145;-56
2021/01/02 11:18:32;;;;;;;;;;;;;;;13.93;34.41;96786.06;1764245;80;21777;-58
2021/01/02 11:20:59;;;;;;;3.35;2.25;;;;;;;13.24;35.94;96781.47;1758225;80;20214;-56
2021/01/02 11:23:28;;;;;;;5.10;2.50;;;;;;;12.78;37.11;96788.09;1765015;80;21104;-57
2021/01/02 11:25:56;;;;;;;3.80;2.17;;;;;;;12.35;37.82;96786.95;1774480;80;21560;-57
2021/01/02 11:28:24;;;;;;;3.80;2.13;;;;;;;11.92;39.11;96783.61;1764943;79;21504;-56
2021/01/02 11:30:52;;;;;;;2.42;1.75;;;;;;;11.68;39.70;96784.43;1766649;80;21437;-55
2021/01/02 11:33:20;;;;;;;3.00;2.02;;;;;;;11.53;39.48;96790.70;1760872;79;21159;-57
2021/01/02 11:35:49;;;;;;;2.75;1.95;;;;;;;11.30;40.06;96794.92;1766591;80;21092;-56
2021/01/02 11:38:18;;;;;;;1.75;1.62;;;;;;;11.04;40.40;96788.50;1771521;79;21198;-56
2021/01/02 11:40:51;;;;;;;2.25;1.90;;;;;;;10.75;41.14;96790.50;1761042;79;21193;-55
2021/01/02 11:43:19;;;;;;;2.52;1.62;;;;;;;10.57;41.25;96786.09;1739499;80;21894;-58
2021/01/02 11:45:47;;;;;;;2.05;1.62;;;;;;;10.39;41.58;96781.19;1770985;80;21569;-56
2021/01/02 11:48:15;;;;;;;5.20;2.20;;;;;;;10.25;42.41;96781.27;1774238;79;21111;-56
2021/01/02 11:50:43;;;;;;;2.25;1.90;;;;;;;10.14;43.30;96775.47;1772863;79;21048;-58
2021/01/02 11:53:11;;;;;;;5.33;1.82;;;;;;;10.14;43.30;96775.47;1771096;79;21116;-56
2021/01/02 11:55:42;;;;;;;2.42;1.80;;;;;;;10.09;42.70;96774.47;1773651;79;21308;-54
2021/01/02 11:58:09;;;;;;;4.17;2.30;;;;;;;9.99;42.79;96782.50;1770685;79;21056;-58
2021/01/02 12:00:38;;;;;;;3.00;1.52;;;;;;;9.92;43.36;96784.66;1767876;79;21237;-56
2021/01/02 12:03:07;;;;;;;5.25;4.00;;;;;;;9.92;43.14;96790.31;1772155;79;21115;-56
2021/01/02 12:05:35;;;;;;;6.47;2.55;;;;;;;9.86;43.54;96786.81;1766962;79;21140;-55